createdAt,value
2022-12-13T02:15:18.302Z,55.09
2022-12-13T02:16:27.561Z,55.17
2022-12-13T02:17:53.836Z,55.22
2022-12-13T02:19:19.539Z,55.20
2022-12-13T02:20:45.903Z,55.06
2022-12-13T02:22:07.069Z,54.87
2022-12-13T02:23:31.230Z,54.69
2022-12-13T02:28:21.569Z,53.85
2022-12-13T02:29:41.622Z,53.53
2022-12-13T02:30:46.421Z,53.16
2022-12-13T02:32:25.205Z,52.90
2022-12-13T02:33:43.392Z,52.70
2022-12-13T02:34:49.092Z,52.39
2022-12-13T02:37:21.517Z,52.03
2022-12-13T02:40:07.811Z,51.55
2022-12-13T02:42:56.460Z,50.99
2022-12-13T02:44:05.108Z,50.82
2022-12-13T02:45:20.817Z,50.70
2022-12-13T02:46:22.447Z,50.50
2022-12-13T02:47:25.488Z,50.29
2022-12-13T02:48:36.267Z,50.24
2022-12-13T02:49:40.168Z,50.09
2022-12-13T02:50:42.368Z,50.01
2022-12-13T02:51:44.570Z,49.89
2022-12-13T02:52:46.826Z,49.78
2022-12-13T02:53:49.697Z,49.67
2022-12-13T02:54:55.083Z,49.59
2022-12-13T02:55:58.106Z,49.54
2022-12-13T02:57:02.146Z,49.51
2022-12-13T02:58:05.038Z,49.56
2022-12-13T03:00:45.065Z,49.50
2022-12-13T03:02:09.522Z,49.34
2022-12-13T03:05:02.968Z,49.22
2022-12-13T03:06:11.819Z,49.17
2022-12-13T03:07:35.648Z,49.08
2022-12-13T03:08:58.765Z,49.11
2022-12-13T03:10:08.570Z,49.12
2022-12-13T03:11:13.937Z,49.04
2022-12-13T03:13:53.502Z,49.04
2022-12-13T03:15:02.100Z,49.01
2022-12-13T03:16:09.099Z,49.04
2022-12-13T03:17:11.613Z,49.02
2022-12-13T03:19:36.308Z,49.05
2022-12-13T03:20:39.087Z,48.98
2022-12-13T03:21:48.344Z,48.93
2022-12-13T03:22:54.065Z,48.96
2022-12-13T03:23:56.520Z,48.93
2022-12-13T03:24:58.620Z,48.91
2022-12-13T03:26:09.737Z,48.86
2022-12-13T03:27:12.087Z,48.81
2022-12-13T03:28:14.226Z,48.76
2022-12-13T03:29:23.609Z,48.71
2022-12-13T03:30:20.898Z,48.65
2022-12-13T03:31:23.499Z,48.65
2022-12-13T03:32:25.640Z,48.66
2022-12-13T03:33:28.536Z,48.72
2022-12-13T03:34:43.767Z,48.74
2022-12-13T03:35:44.923Z,48.67
2022-12-13T03:36:38.839Z,48.73
2022-12-13T03:37:41.968Z,48.72
2022-12-13T03:38:46.442Z,48.90
2022-12-13T03:39:49.028Z,49.00
2022-12-13T03:40:58.731Z,49.03
2022-12-13T03:42:01.864Z,49.09
2022-12-13T03:43:04.824Z,49.12
2022-12-13T03:44:07.088Z,49.09
2022-12-13T03:45:09.916Z,49.20
2022-12-13T03:46:13.325Z,49.26
2022-12-13T03:47:15.775Z,49.25
2022-12-13T03:48:22.524Z,49.35
2022-12-13T03:49:23.437Z,49.37
2022-12-13T03:50:27.486Z,49.39
2022-12-13T03:51:29.694Z,49.38
2022-12-13T03:52:32.244Z,49.38
2022-12-13T03:53:35.652Z,49.37
2022-12-13T03:54:37.813Z,49.44
2022-12-13T03:55:39.916Z,49.45
2022-12-13T03:56:43.127Z,49.42
2022-12-13T03:57:45.316Z,49.46
2022-12-13T03:58:49.514Z,49.39
2022-12-13T03:59:52.599Z,49.46
2022-12-13T04:01:00.158Z,49.44
2022-12-13T04:02:03.973Z,49.54
2022-12-13T04:03:07.006Z,49.83
2022-12-13T04:04:09.205Z,49.91
2022-12-13T04:05:11.750Z,49.96
2022-12-13T04:06:21.708Z,49.99
2022-12-13T04:07:22.525Z,50.00
2022-12-13T04:08:23.500Z,50.04
2022-12-13T04:09:26.658Z,50.05
2022-12-13T04:10:28.995Z,50.07
2022-12-13T04:11:32.099Z,50.07
2022-12-13T04:12:34.596Z,50.12
2022-12-13T04:13:36.905Z,50.12
2022-12-13T04:14:39.500Z,50.11
2022-12-13T04:15:41.478Z,50.06
2022-12-13T04:16:43.546Z,49.98
2022-12-13T04:17:45.641Z,49.95
2022-12-13T04:18:50.448Z,49.89
2022-12-13T04:19:52.566Z,49.87
2022-12-13T04:20:54.668Z,49.83
2022-12-13T04:21:57.335Z,49.81
2022-12-13T04:22:59.793Z,49.83
2022-12-13T04:24:03.144Z,49.76
2022-12-13T04:25:06.590Z,49.78
2022-12-13T04:26:08.980Z,49.78
2022-12-13T04:27:11.059Z,49.77
2022-12-13T04:28:13.155Z,49.72
2022-12-13T04:29:18.191Z,49.70
2022-12-13T04:30:21.076Z,49.69
2022-12-13T04:31:23.399Z,49.66
2022-12-13T04:32:27.461Z,49.69
2022-12-13T04:33:29.810Z,49.65
2022-12-13T04:34:37.172Z,49.65
2022-12-13T04:35:36.834Z,49.60
2022-12-13T04:36:39.239Z,49.63
2022-12-13T04:37:43.357Z,49.60
2022-12-13T04:40:00.486Z,49.54
2022-12-13T04:41:07.184Z,49.54
2022-12-13T04:42:09.428Z,49.67
2022-12-13T04:43:12.210Z,49.65
2022-12-13T04:44:28.354Z,49.64
2022-12-13T04:45:19.979Z,49.67
2022-12-13T04:46:22.782Z,49.69
2022-12-13T04:47:24.923Z,49.67
2022-12-13T04:48:30.427Z,49.71
2022-12-13T04:49:32.732Z,49.72
2022-12-13T04:50:35.318Z,49.72
2022-12-13T04:51:38.282Z,49.80
2022-12-13T04:52:40.380Z,49.81
2022-12-13T04:53:55.671Z,49.82
2022-12-13T04:54:59.861Z,49.82
2022-12-13T04:56:03.636Z,49.81
2022-12-13T04:57:06.508Z,49.86
2022-12-13T04:58:09.166Z,49.89
2022-12-13T04:59:11.154Z,49.88
2022-12-13T05:00:14.352Z,49.91
2022-12-13T05:01:17.714Z,49.98
2022-12-13T05:02:23.768Z,50.13
2022-12-13T05:03:24.549Z,50.17
2022-12-13T05:04:32.317Z,50.26
2022-12-13T05:05:30.599Z,50.30
2022-12-13T05:06:32.971Z,50.32
2022-12-13T05:07:42.431Z,50.40
2022-12-13T05:08:41.139Z,50.64
2022-12-13T05:09:43.252Z,50.69
2022-12-13T05:10:45.421Z,50.80
2022-12-13T05:11:48.602Z,50.79
2022-12-13T05:12:50.647Z,50.80
2022-12-13T05:13:52.767Z,50.76
2022-12-13T05:14:55.867Z,50.76
2022-12-13T05:16:00.590Z,50.72
2022-12-13T05:17:02.852Z,50.70
2022-12-13T05:18:10.593Z,50.68
2022-12-13T05:19:11.185Z,50.66
2022-12-13T05:20:13.345Z,50.61
2022-12-13T05:21:15.976Z,50.62
2022-12-13T05:22:20.631Z,50.72
2022-12-13T05:23:25.223Z,50.72
2022-12-13T05:24:27.353Z,50.78
2022-12-13T05:25:29.541Z,50.77
2022-12-13T05:26:31.630Z,50.80
2022-12-13T05:27:34.051Z,50.81
2022-12-13T05:28:36.159Z,50.81
2022-12-13T05:29:38.172Z,50.81
2022-12-13T05:30:41.396Z,50.80
2022-12-13T05:31:43.579Z,50.79
2022-12-13T05:32:47.282Z,50.78
2022-12-13T05:33:49.658Z,50.79
2022-12-13T05:34:51.757Z,50.78
2022-12-13T05:35:59.932Z,50.77
2022-12-13T05:37:00.323Z,50.74
2022-12-13T05:38:03.378Z,50.71
2022-12-13T05:39:06.038Z,50.74
2022-12-13T05:40:11.488Z,50.76
2022-12-13T05:41:15.611Z,50.77
2022-12-13T05:42:18.459Z,50.82
2022-12-13T05:43:21.562Z,50.85
2022-12-13T05:44:24.574Z,50.94
2022-12-13T05:45:26.779Z,50.96
2022-12-13T05:46:29.435Z,50.97
2022-12-13T05:47:31.457Z,50.96
2022-12-13T05:48:33.562Z,50.95
2022-12-13T05:49:36.266Z,50.98
2022-12-13T05:50:40.594Z,50.96
2022-12-13T05:51:43.586Z,50.94
2022-12-13T05:52:45.706Z,50.96
2022-12-13T05:53:53.268Z,50.95
2022-12-13T05:54:54.628Z,50.90
2022-12-13T05:57:13.738Z,50.94
2022-12-13T05:58:15.822Z,50.95
2022-12-13T05:59:20.745Z,50.96
2022-12-13T06:00:28.674Z,50.96
2022-12-13T06:01:27.371Z,50.99
2022-12-13T06:02:30.663Z,50.99
2022-12-13T06:03:33.154Z,50.99
2022-12-13T06:04:35.696Z,51.12
2022-12-13T06:05:37.712Z,51.17
2022-12-13T06:06:39.775Z,51.26
2022-12-13T06:07:42.939Z,51.31
2022-12-13T06:08:45.699Z,51.29
2022-12-13T06:09:48.845Z,51.24
2022-12-13T06:11:10.760Z,51.25
2022-12-13T06:12:00.908Z,51.26
2022-12-13T06:13:21.472Z,51.22
2022-12-13T06:14:21.711Z,51.23
2022-12-13T06:15:22.227Z,51.18
2022-12-13T06:16:22.856Z,51.21
2022-12-13T06:17:22.933Z,51.17
2022-12-13T06:18:25.610Z,51.17
2022-12-13T06:19:28.762Z,51.15
2022-12-13T06:20:30.931Z,51.16
2022-12-13T06:21:41.286Z,51.14
2022-12-13T06:22:37.062Z,51.10
2022-12-13T06:23:39.158Z,51.05
2022-12-13T06:24:41.755Z,51.09
2022-12-13T06:25:47.495Z,51.02
2022-12-13T06:26:49.289Z,51.01
2022-12-13T06:27:52.624Z,50.99
2022-12-13T06:28:54.766Z,51.02
2022-12-13T06:30:01.020Z,50.99
2022-12-13T06:31:01.806Z,50.99
2022-12-13T10:45:23.581Z,51.75
2022-12-13T10:46:27.091Z,51.81
2022-12-13T10:47:29.360Z,51.45
2022-12-13T10:48:49.410Z,51.77
2022-12-13T10:49:59.023Z,51.42
2022-12-13T10:51:03.993Z,51.45
2022-12-13T10:52:08.091Z,50.80
2022-12-13T10:53:14.313Z,51.05
2022-12-13T10:55:45.043Z,49.30
2022-12-13T10:56:49.271Z,49.77
2022-12-13T10:57:57.127Z,48.43
2022-12-13T10:59:17.238Z,48.14
2022-12-13T11:00:42.209Z,46.59
2022-12-13T11:01:45.838Z,46.29
2022-12-13T11:02:53.590Z,45.01
2022-12-13T11:04:02.435Z,45.52
2022-12-13T11:06:44.479Z,45.99
2022-12-13T11:07:47.050Z,45.79
2022-12-13T11:08:50.335Z,44.49
2022-12-13T11:09:54.362Z,43.01
2022-12-13T11:11:01.132Z,43.94
2022-12-13T11:12:06.042Z,44.18
2022-12-13T11:13:08.210Z,43.87
2022-12-13T11:14:16.681Z,43.55
2022-12-13T11:15:23.048Z,43.68
2022-12-13T11:16:31.215Z,43.47
2022-12-13T11:17:36.392Z,43.52
2022-12-13T11:18:39.484Z,43.47
2022-12-13T11:20:00.051Z,43.01
2022-12-13T11:21:02.905Z,42.86
2022-12-13T11:22:08.477Z,43.56
2022-12-13T11:24:33.729Z,43.87
2022-12-13T11:25:39.718Z,42.92
2022-12-13T11:26:44.116Z,43.96
2022-12-13T11:28:26.187Z,44.15
2022-12-13T11:29:32.792Z,43.27
2022-12-13T11:30:47.883Z,43.63
2022-12-13T11:32:23.052Z,44.35
2022-12-13T11:35:21.544Z,43.35
2022-12-13T11:37:58.234Z,43.07
2022-12-13T11:39:16.805Z,43.31
2022-12-13T11:40:25.150Z,43.38
2022-12-13T11:42:54.447Z,43.37
2022-12-13T11:44:20.877Z,43.13
2022-12-13T11:45:32.794Z,43.02
2022-12-13T11:46:40.034Z,43.81
2022-12-13T11:47:48.579Z,42.72
2022-12-13T11:48:56.137Z,42.96
2022-12-13T11:49:58.444Z,42.59
2022-12-13T11:51:00.534Z,42.59
2022-12-13T11:52:18.567Z,43.26
2022-12-13T11:53:37.666Z,42.11
2022-12-13T11:54:50.000Z,43.33
2022-12-13T11:55:56.619Z,43.41
2022-12-13T11:57:00.419Z,42.56
2022-12-13T11:58:16.602Z,43.33
2022-12-13T11:59:40.190Z,42.88
2022-12-13T12:00:47.096Z,44.01
2022-12-13T12:03:13.431Z,43.49
2022-12-13T12:04:20.342Z,44.36
2022-12-13T12:07:31.353Z,43.65
2022-12-13T12:09:33.883Z,43.20
2022-12-13T12:10:38.094Z,43.13
2022-12-13T12:12:01.597Z,42.13
2022-12-13T12:13:17.030Z,42.63
2022-12-13T12:14:24.463Z,42.25
2022-12-13T12:16:53.376Z,42.22
2022-12-13T12:17:56.734Z,42.60
2022-12-13T12:19:01.362Z,42.21
2022-12-13T12:20:23.696Z,42.34
2022-12-13T12:21:49.665Z,42.34
2022-12-13T12:22:39.147Z,41.58
2022-12-13T12:24:03.487Z,41.59
2022-12-13T12:25:18.742Z,41.78
2022-12-13T12:26:27.691Z,41.44
2022-12-13T12:27:36.294Z,42.13
2022-12-13T12:29:01.524Z,42.50
2022-12-13T12:30:12.505Z,42.18
2022-12-13T12:31:24.980Z,41.47
2022-12-13T12:32:43.149Z,42.30
2022-12-13T12:34:08.828Z,42.21
2022-12-13T12:36:41.599Z,42.62
2022-12-13T12:38:11.115Z,42.83
2022-12-13T12:39:38.497Z,42.75
2022-12-13T12:41:15.067Z,42.68
2022-12-13T12:42:20.031Z,42.72
2022-12-13T12:43:37.920Z,42.80
2022-12-13T12:47:01.535Z,43.02
2022-12-13T12:48:58.497Z,43.05
2022-12-13T12:49:23.735Z,43.18
2022-12-13T12:50:33.436Z,43.34
2022-12-13T12:51:47.149Z,43.39
2022-12-13T12:53:08.693Z,43.45
2022-12-13T12:55:49.457Z,43.55
2022-12-13T12:58:33.820Z,43.67
2022-12-13T13:00:01.464Z,43.83
2022-12-13T13:01:25.957Z,43.86
2022-12-13T13:02:38.914Z,44.02
2022-12-13T13:03:43.127Z,44.16
2022-12-13T13:05:00.992Z,44.24
2022-12-13T13:06:12.008Z,44.38
2022-12-13T13:08:41.904Z,44.59
2022-12-13T13:09:44.029Z,44.63
2022-12-13T13:10:49.770Z,44.75
2022-12-13T13:11:51.573Z,44.81
2022-12-13T13:13:12.256Z,44.86
2022-12-13T13:14:04.394Z,44.93
2022-12-13T13:15:34.393Z,44.91
2022-12-13T13:16:41.878Z,44.96
2022-12-13T13:17:46.032Z,44.99
2022-12-13T13:18:49.678Z,44.96
2022-12-13T13:20:13.994Z,45.01
2022-12-13T13:21:28.012Z,45.06
2022-12-13T13:22:42.967Z,45.05
2022-12-13T13:23:41.443Z,45.09
2022-12-13T13:24:45.379Z,45.12
2022-12-13T13:26:15.979Z,45.10
2022-12-13T13:27:11.778Z,45.14
2022-12-13T13:28:19.075Z,45.18
2022-12-13T13:29:30.622Z,45.20
2022-12-13T13:30:34.088Z,45.23
2022-12-13T13:32:06.073Z,45.18
2022-12-13T13:33:13.247Z,45.17
2022-12-13T13:34:29.150Z,45.21
2022-12-13T13:35:36.168Z,45.20
2022-12-13T13:36:42.835Z,45.23
2022-12-13T13:37:46.536Z,45.29
2022-12-13T13:38:51.786Z,45.33
2022-12-13T13:40:30.097Z,45.32
2022-12-13T13:43:12.557Z,45.32
2022-12-13T13:44:52.030Z,45.33
2022-12-13T13:45:59.192Z,45.33
2022-12-13T13:47:20.637Z,45.22
2022-12-13T13:48:47.966Z,45.18
2022-12-13T13:50:09.805Z,42.58
2022-12-13T13:52:08.544Z,41.21
2022-12-13T13:54:46.940Z,39.71
2022-12-13T13:58:08.865Z,37.34
2022-12-13T13:59:05.234Z,37.79
2022-12-13T14:00:22.161Z,38.13
2022-12-13T14:01:48.187Z,38.39
2022-12-13T14:03:29.202Z,36.90
2022-12-13T14:04:29.623Z,39.18
2022-12-13T14:05:54.335Z,39.38
2022-12-13T14:07:10.067Z,39.19
2022-12-13T14:08:30.671Z,38.65
2022-12-13T14:11:35.523Z,39.05
2022-12-13T14:12:53.931Z,38.78
2022-12-13T14:14:30.680Z,38.66
2022-12-13T14:17:18.373Z,36.64
2022-12-13T14:18:44.896Z,37.52
2022-12-13T14:20:20.102Z,35.68
2022-12-13T14:21:36.382Z,37.23
2022-12-13T14:22:51.464Z,36.65
2022-12-13T14:24:14.347Z,36.26
2022-12-13T14:25:23.463Z,36.45
2022-12-13T14:28:04.372Z,35.52
2022-12-13T14:29:19.497Z,35.72
2022-12-13T14:30:28.098Z,34.49
2022-12-13T14:32:52.479Z,35.47
2022-12-13T14:33:55.141Z,35.16
2022-12-13T14:34:57.929Z,35.25
2022-12-13T18:01:54.569Z,52.18
2022-12-13T18:02:57.804Z,52.61
2022-12-13T18:04:00.505Z,52.62
2022-12-13T18:05:03.010Z,52.53
2022-12-13T18:06:08.324Z,52.30
2022-12-13T18:07:10.488Z,52.17
2022-12-13T18:08:12.987Z,52.06
2022-12-13T18:09:15.769Z,51.66
2022-12-13T18:10:24.841Z,51.40
2022-12-13T18:11:34.160Z,51.09
2022-12-13T18:12:29.802Z,50.73
2022-12-13T18:13:32.998Z,50.46
2022-12-13T18:14:35.296Z,50.16
2022-12-13T18:15:37.954Z,49.86
2022-12-13T18:16:41.795Z,49.58
2022-12-13T18:18:10.638Z,49.44
2022-12-13T18:18:55.238Z,49.35
2022-12-13T18:19:52.519Z,49.12
2022-12-13T18:20:55.512Z,48.90
2022-12-13T18:21:58.959Z,48.78
2022-12-13T18:23:01.128Z,48.54
2022-12-13T18:24:05.230Z,48.42
2022-12-13T18:25:08.577Z,48.07
2022-12-13T18:26:12.949Z,47.89
2022-12-13T18:27:17.135Z,47.67
2022-12-13T18:28:19.538Z,47.56
2022-12-13T18:29:23.099Z,47.29
2022-12-13T18:30:25.242Z,47.03
2022-12-13T18:31:41.200Z,46.70
2022-12-13T18:32:43.953Z,46.68
2022-12-13T18:33:47.742Z,46.68
2022-12-13T18:34:50.522Z,46.68
2022-12-13T18:35:55.517Z,46.30
2022-12-13T18:36:58.149Z,46.11
2022-12-13T18:38:01.460Z,46.01
2022-12-13T18:39:03.898Z,46.03
2022-12-13T18:40:07.138Z,45.99
2022-12-13T18:41:11.714Z,45.75
2022-12-13T18:42:15.265Z,45.82
2022-12-13T18:43:17.936Z,45.75
2022-12-13T18:44:20.593Z,45.56
2022-12-13T18:45:23.627Z,45.54
2022-12-13T18:46:27.208Z,45.47
2022-12-13T18:47:30.575Z,45.27
2022-12-13T18:48:34.067Z,45.38
2022-12-13T18:49:37.348Z,45.24
2022-12-13T18:50:45.570Z,45.26
2022-12-13T18:51:44.984Z,45.26
2022-12-13T18:52:47.613Z,45.22
2022-12-13T18:53:51.814Z,45.11
2022-12-13T18:54:55.026Z,44.97
2022-12-13T18:57:15.052Z,44.97
2022-12-13T18:58:17.299Z,44.93
2022-12-13T18:59:19.565Z,44.90
2022-12-13T19:00:22.833Z,44.89
2022-12-13T19:01:26.232Z,44.81
2022-12-13T19:02:34.286Z,44.80
2022-12-13T19:03:34.260Z,44.83
2022-12-13T19:04:36.966Z,44.80
2022-12-13T19:05:41.117Z,44.78
2022-12-13T19:06:43.404Z,44.77
2022-12-13T19:07:45.986Z,44.73
2022-12-13T19:10:04.909Z,44.77
2022-12-13T19:11:07.117Z,44.73
2022-12-13T19:12:09.207Z,44.73
2022-12-13T19:13:13.346Z,44.72
2022-12-13T19:14:18.267Z,44.81
2022-12-13T19:15:21.345Z,44.85
2022-12-13T19:16:24.530Z,44.88
2022-12-13T19:17:27.397Z,44.92
2022-12-13T19:18:34.734Z,44.94
2022-12-13T19:19:36.979Z,44.98
2022-12-13T19:20:46.081Z,44.99
2022-12-13T19:21:49.516Z,44.98
2022-12-13T19:22:52.098Z,45.02
2022-12-13T19:23:58.184Z,45.00
2022-12-13T19:25:01.950Z,45.05
2022-12-13T19:26:07.252Z,45.04
2022-12-13T19:27:11.001Z,45.00
2022-12-13T19:28:15.677Z,45.00
2022-12-13T19:29:17.972Z,45.03
2022-12-13T19:30:22.541Z,45.08
2022-12-13T19:32:48.488Z,45.05
2022-12-13T19:33:51.866Z,45.00
2022-12-13T19:34:55.266Z,45.04
2022-12-13T19:35:59.815Z,45.03
2022-12-13T19:37:06.579Z,44.99
2022-12-13T19:38:07.868Z,44.98
2022-12-13T19:39:15.139Z,44.97
2022-12-13T19:40:18.887Z,45.01
2022-12-13T19:41:22.201Z,44.97
2022-12-13T19:42:26.260Z,44.97
2022-12-13T19:43:31.381Z,44.97
2022-12-13T19:44:34.746Z,44.95
2022-12-13T19:45:38.138Z,44.96
2022-12-13T19:46:41.459Z,44.92
2022-12-13T19:47:46.685Z,44.92
2022-12-13T19:48:50.174Z,44.89
2022-12-13T19:49:52.373Z,44.84
2022-12-13T19:51:00.331Z,44.84
2022-12-13T19:52:03.241Z,44.78
2022-12-13T19:53:07.087Z,44.73
2022-12-13T19:54:10.162Z,44.72
2022-12-13T19:55:14.894Z,44.69
2022-12-13T19:56:19.468Z,44.66
2022-12-13T19:57:22.670Z,44.67
2022-12-13T19:58:26.468Z,44.67
2022-12-13T19:59:29.631Z,44.65
2022-12-13T20:00:31.821Z,44.63
2022-12-13T20:01:36.147Z,44.68
2022-12-13T20:02:39.792Z,44.73
2022-12-13T20:03:43.368Z,44.74
2022-12-13T20:04:47.008Z,44.70
2022-12-13T20:05:58.428Z,44.74
2022-12-13T20:07:01.743Z,44.80
2022-12-13T20:08:05.745Z,44.83
2022-12-13T20:09:10.009Z,44.92
2022-12-13T20:10:13.346Z,45.01
2022-12-13T20:11:20.270Z,45.07
2022-12-13T20:12:22.495Z,45.12
2022-12-13T20:13:27.731Z,45.32
2022-12-13T20:14:30.921Z,45.45
2022-12-13T20:15:34.119Z,45.59
2022-12-13T20:16:36.860Z,45.67
2022-12-13T20:17:39.626Z,45.74
2022-12-13T20:18:42.762Z,45.86
2022-12-13T20:19:50.626Z,45.83
2022-12-13T20:22:15.108Z,45.93
2022-12-13T20:23:31.225Z,46.05
2022-12-13T20:24:35.442Z,46.05
2022-12-13T20:25:37.568Z,46.06
2022-12-13T20:26:40.084Z,46.05
2022-12-13T20:27:42.295Z,46.11
2022-12-13T20:28:44.498Z,46.08
2022-12-13T20:29:48.765Z,46.08
2022-12-13T20:30:51.123Z,46.08
2022-12-13T20:31:54.627Z,46.06
2022-12-13T20:32:56.985Z,46.03
2022-12-13T20:34:01.476Z,45.98
2022-12-13T20:35:04.620Z,46.02
2022-12-13T20:36:25.816Z,45.96
2022-12-13T20:38:27.312Z,45.89
2022-12-13T20:39:30.413Z,45.86
2022-12-13T20:40:32.866Z,45.96
2022-12-13T20:41:36.161Z,45.90
2022-12-13T20:42:39.342Z,45.93
2022-12-13T20:43:43.668Z,45.91
2022-12-13T20:44:47.935Z,45.91
2022-12-13T20:45:51.441Z,45.94
2022-12-13T20:46:54.291Z,45.96
2022-12-13T20:47:57.572Z,45.97
2022-12-13T20:49:01.255Z,45.97
2022-12-13T20:50:04.378Z,45.96
2022-12-13T20:51:07.533Z,46.01
2022-12-13T20:52:12.994Z,45.98
2022-12-13T20:53:30.271Z,45.99
2022-12-13T20:54:33.996Z,45.95
2022-12-13T20:55:37.306Z,45.98
2022-12-13T20:56:39.455Z,46.01
2022-12-13T20:57:41.605Z,45.99
2022-12-13T20:58:44.519Z,45.99
2022-12-13T20:59:47.251Z,45.94
2022-12-13T21:00:49.961Z,45.95
2022-12-13T21:01:52.838Z,45.95
2022-12-13T21:02:55.778Z,45.83
2022-12-13T21:04:00.302Z,45.81
2022-12-13T21:05:04.200Z,45.80
2022-12-13T21:06:07.689Z,45.70
2022-12-13T21:07:11.861Z,45.69
2022-12-13T21:08:14.811Z,45.65
2022-12-13T21:09:18.201Z,45.58
2022-12-13T21:10:22.294Z,45.58
2022-12-13T21:11:27.929Z,45.58
2022-12-13T21:12:31.787Z,45.47
2022-12-13T21:13:34.860Z,45.48
2022-12-13T21:14:37.024Z,45.50
2022-12-13T21:15:39.773Z,45.51
2022-12-13T21:16:44.678Z,45.46
2022-12-13T21:17:46.933Z,45.42
2022-12-13T21:18:49.542Z,45.41
2022-12-13T21:19:52.137Z,45.43
2022-12-13T21:20:55.285Z,45.20
2022-12-13T21:21:57.429Z,45.29
2022-12-13T21:23:01.544Z,45.47
2022-12-13T21:24:05.027Z,45.43
2022-12-13T21:25:09.636Z,45.46
2022-12-13T21:26:11.787Z,45.46
2022-12-13T21:27:14.369Z,43.98
2022-12-13T21:28:16.443Z,43.44
2022-12-13T21:29:19.819Z,42.18
2022-12-13T21:30:22.977Z,41.57
2022-12-13T21:31:25.760Z,40.32
2022-12-13T21:32:28.705Z,41.15
2022-12-13T21:33:32.840Z,39.67
2022-12-13T21:34:36.522Z,39.67
2022-12-13T21:35:39.379Z,39.74
2022-12-13T21:36:46.924Z,38.64
2022-12-13T21:37:49.441Z,38.94
2022-12-13T21:38:53.014Z,38.49
2022-12-13T21:39:55.142Z,38.09
2022-12-13T21:40:57.266Z,37.23
2022-12-13T21:41:59.958Z,37.42
2022-12-13T21:43:03.114Z,36.13
2022-12-13T21:44:06.292Z,36.31
2022-12-13T21:45:09.268Z,36.42
2022-12-13T21:46:13.861Z,36.05
2022-12-13T21:47:15.946Z,35.64
2022-12-13T21:48:18.045Z,35.85
2022-12-13T21:49:21.580Z,34.86
2022-12-13T21:50:24.585Z,35.83
2022-12-13T21:51:27.315Z,36.57
2022-12-13T21:52:30.847Z,36.73
2022-12-13T21:53:33.765Z,37.03
2022-12-13T21:54:36.533Z,37.23
2022-12-13T21:55:44.320Z,37.29
2022-12-13T21:56:50.870Z,37.51
2022-12-13T21:57:53.546Z,37.70
2022-12-13T21:58:55.620Z,37.83
2022-12-13T21:59:58.159Z,38.00
2022-12-13T22:01:00.596Z,38.21
2022-12-13T22:02:06.887Z,38.30
2022-12-13T22:03:11.234Z,38.40
2022-12-13T22:04:14.326Z,38.56
2022-12-13T22:05:17.161Z,38.68
2022-12-13T22:07:29.437Z,39.02
2022-12-13T22:08:31.639Z,39.12
2022-12-13T22:09:36.262Z,39.25
2022-12-13T22:10:38.820Z,39.22
2022-12-13T22:11:40.973Z,39.22
2022-12-13T22:12:43.736Z,39.57
2022-12-13T22:13:48.439Z,39.70
2022-12-13T22:14:52.845Z,39.80
2022-12-13T22:15:55.585Z,39.92
2022-12-13T22:16:59.739Z,40.09
2022-12-13T22:18:02.641Z,40.19
2022-12-13T22:19:04.991Z,40.26
2022-12-13T22:20:10.715Z,40.34
2022-12-13T22:21:12.981Z,40.50
2022-12-13T22:22:16.539Z,40.58
2022-12-13T22:23:19.202Z,40.62
2022-12-13T22:24:21.565Z,40.72
2022-12-13T22:25:25.485Z,40.83
2022-12-13T22:26:27.884Z,40.95
2022-12-13T22:27:30.156Z,41.04
2022-12-13T22:28:34.700Z,41.12
2022-12-13T22:29:38.483Z,41.17
2022-12-13T22:30:47.552Z,41.26
2022-12-13T22:31:50.391Z,41.28
2022-12-13T22:32:53.055Z,41.35
2022-12-13T22:33:55.429Z,41.49
2022-12-13T22:34:57.506Z,41.57
2022-12-13T22:36:03.149Z,41.62
2022-12-13T22:37:06.325Z,41.66
2022-12-13T22:38:09.531Z,41.78
2022-12-13T22:39:16.958Z,41.82
2022-12-13T22:40:19.111Z,41.88
2022-12-13T22:41:21.846Z,41.95
2022-12-13T22:42:24.775Z,42.01
2022-12-13T22:43:26.870Z,42.04
2022-12-13T22:44:28.978Z,42.06
2022-12-13T22:45:31.137Z,42.15
2022-12-13T22:46:33.572Z,42.16
2022-12-13T22:47:36.708Z,42.22
2022-12-13T22:48:39.456Z,42.32
2022-12-13T22:49:42.971Z,42.33
2022-12-13T22:50:45.336Z,42.37
2022-12-13T22:51:49.420Z,42.38
2022-12-13T22:52:51.510Z,42.40
2022-12-13T22:53:54.841Z,42.45
2022-12-13T22:54:57.961Z,42.50
2022-12-13T22:57:27.784Z,42.60
2022-12-13T22:58:30.963Z,42.65
2022-12-13T22:59:33.004Z,42.70
2022-12-13T23:00:35.609Z,42.75
2022-12-13T23:01:38.719Z,42.77
2022-12-13T23:02:41.804Z,42.81
2022-12-13T23:03:45.124Z,42.82
2022-12-13T23:04:47.439Z,42.88
2022-12-13T23:05:49.552Z,42.93
2022-12-13T23:06:52.811Z,42.95
2022-12-13T23:07:54.905Z,42.92
2022-12-13T23:10:12.101Z,42.95
2022-12-13T23:11:15.568Z,43.03
2022-12-13T23:12:18.094Z,43.04
2022-12-13T23:13:20.533Z,43.09
2022-12-13T23:14:30.931Z,43.10
2022-12-13T23:15:37.733Z,43.11
2022-12-13T23:16:41.359Z,43.15
2022-12-13T23:17:43.555Z,43.16
2022-12-13T23:18:46.319Z,43.18
2022-12-13T23:19:50.056Z,43.36
2022-12-13T23:20:52.435Z,43.36
2022-12-13T23:21:57.268Z,43.25
2022-12-13T23:22:59.590Z,43.30
2022-12-13T23:24:01.927Z,43.29
2022-12-13T23:25:05.021Z,43.35
2022-12-13T23:26:12.623Z,43.38
2022-12-13T23:27:14.762Z,43.38
2022-12-13T23:28:18.221Z,43.40
2022-12-13T23:29:20.837Z,43.44
2022-12-13T23:30:24.866Z,43.43
2022-12-13T23:31:28.770Z,43.47
2022-12-13T23:32:30.997Z,43.49
2022-12-13T23:33:34.870Z,43.50
2022-12-13T23:34:37.921Z,43.46
2022-12-13T23:35:41.127Z,38.80
2022-12-13T23:36:44.719Z,41.57
2022-12-13T23:37:48.478Z,38.28
2022-12-13T23:38:52.419Z,40.57
2022-12-13T23:39:55.817Z,40.46
2022-12-13T23:41:06.863Z,40.46
2022-12-13T23:42:09.005Z,40.25
2022-12-13T23:43:11.897Z,39.07
2022-12-13T23:44:14.480Z,38.20
2022-12-13T23:45:17.344Z,37.92
2022-12-13T23:46:22.255Z,36.19
2022-12-13T23:47:24.456Z,37.42
2022-12-13T23:48:27.319Z,36.98
2022-12-13T23:49:30.052Z,36.30
2022-12-13T23:50:32.735Z,36.89
2022-12-13T23:51:34.914Z,34.71
2022-12-13T23:52:37.020Z,35.31
2022-12-13T23:53:39.207Z,36.05
2022-12-13T23:54:43.430Z,35.64
2022-12-13T23:55:49.147Z,33.44
2022-12-13T23:56:50.459Z,34.11
2022-12-13T23:57:52.759Z,33.76
2022-12-13T23:58:55.801Z,35.02
2022-12-13T23:59:58.522Z,32.85
